Relevés horaires Chievres (Belgique)


Relevés horaires à Chievres - Jeudi 09 Juill. 2020
Heure UTC1 Température [°C] Vent [km/h] Hum. [%] Pres.4 [hPa] Visi. [Km] Nébu. [octa] Préc.5 [mm] Cond.
2m. Res. Ros. Dir.2 Vit. Moy. Raf.3
20:00 19.6 19.6 14.4 NNO 1.9 -- 9.3 72 1011.5(-0.1/3h) 20 -- -- --
19:00 22.1 22.1 14.5 O 9.3 -- 14.8 62 1011.7(-0.6/3h) 20 -- -- --
18:00 24.6 24.6 14.5 O 7.4 -- 16.7 53 1011.3(-1.4/3h) 20 -- -- --
17:00 24.3 24.3 14.4 OSO 7.4 -- 13.0 54 1011.5(-1.9/3h) 20 -- -- --
16:00 24.7 24.7 14.5 O 7.4 -- 14.8 53 1012.2(-1.5/3h) 19 -- -- --
15:00 23.7 23.7 13.9 O 7.4 -- 16.7 54 1012.8(-1.3/3h) 20 -- -- --
14:00 23.7 23.7 14.2 OSO 9.3 -- 16.7 55 1013.5(-1.0/3h) 20 -- -- --
13:00 22.5 22.5 14.1 OSO 9.3 -- 14.8 59 1014(-0.6/3h) 20 -- -- --
12:00 21.4 21.4 14.3 O 9.3 -- 18.5 64 1014.2(-0.5/3h) 20 -- -- --
11:00 21.4 21.4 14.4 OSO 9.3 -- 18.5 64 1014.6(-0.1/3h) 20 -- -- --
10:00 20.1 20.1 15.1 OSO 9.3 -- 16.7 73 1014.7(-0.1/3h) 20 -- -- --
09:00 18.8 18.8 14.7 OSO 9.3 -- 18.5 77 1014.8(0.3/3h) 20 -- -- --
08:00 17.7 17.7 15.3 OSO 9.3 -- 14.8 86 1014.7(0.0/3h) 20 -- -- --
07:00 17.2 17.2 15.3 OSO 7.4 -- 18.5 89 1015(0.0/3h) 19 -- -- --
06:00 16.8 16.8 15.3 SO 9.3 -- 14.8 91 1014.6(-0.8/3h) 20 -- 0.1/12h
NA
05:00 16.2 16.2 15.2 SO 7.4 -- 11.1 94 1014.8(-0.4/3h) 19 -- -- --
04:00 16.2 16.2 15.1 OSO 7.4 -- 13.0 93 1015(-0.5/3h) 20 -- -- --
03:00 16.5 16.5 15.6 OSO 5.6 -- 13.0 94 1015.3(-0.4/3h) 20 -- -- NA
02:00 16.6 16.6 15.5 OSO 5.6 -- 11.1 93 1015.2(-0.5/3h) 19 -- -- --
01:00 16.6 16.6 15.5 OSO 5.6 -- 11.1 93 1015.6(-0.5/3h) 17 -- -- --
00:00 16.5 16.5 15.6 SO 5.6 -- 11.1 94 1015.7(-0.5/3h) 16 -- 0.1/6h
NA

1 Coordinated Universal Time. Actuellement il est 23:00 locale et 21:00 UTC.

2 Le vent souffle depuis la direction indiquée vers la direction oposée.

3 Les rafales max. sont disponible 40 min après l'heure du relevé.

4 Pour les stations d'altitude (plus de 600m) le géopotentiel du niveau le plus proche de la pression obligatoire est indiqué.

5 Les stations disposant d'un diffuseur peuvent indiquer "trace". Cela signifie que des précipitations ont touchés le sol mais que la quantité est inférieure à 0.1 mm.

Récapitulatif de la journée
Température [°C] Vent [km/h] Ensoleillement4 [h] Precipitations totale5 [mm] Pression [Hpa]
Min1 Max.2 Moy.3 Max. Min Max.
16.2 25.5 0 18.5 0 h 0 min 0 1011.3 1015.7

1 Température minimale relevée entre 18:00 UTC la veille et 18:00 UTC le jour donné.

2 Température maximale relevée entre 06:00 UTC le jour donné et 06:00 UTC le lendemain.

3 Vent moyen de la journée basé sur les relevés horaires.

4 Ensoleillement en heures relevé entre 06:00 UTC la veille et 06:00 UTC le jour donné.

5 Précipitations totales tombées entre 06:00 UTC la jour donné et 06:00 UTC le lendemain.

Graphiques horaires